sensor_id;sensor_type;location;lat;lon;timestamp;P1;durP1;ratioP1;P2;durP2;ratioP2
72123;SDS011;63818;37.134;-8.548;2023-08-06T00:03:59;106.5;;;95.8;;
72123;SDS011;63818;37.134;-8.548;2023-08-06T00:08:45;108.8;;;98.2;;
72123;SDS011;63818;37.134;-8.548;2023-08-06T00:13:31;106.4;;;96.7;;
72123;SDS011;63818;37.134;-8.548;2023-08-06T00:18:17;94.2;;;85.3;;
72123;SDS011;63818;37.134;-8.548;2023-08-06T00:23:03;80.1;;;72.5;;
72123;SDS011;63818;37.134;-8.548;2023-08-06T00:27:51;68.4;;;62.0;;
72123;SDS011;63818;37.134;-8.548;2023-08-06T00:32:37;60.6;;;54.7;;
72123;SDS011;63818;37.134;-8.548;2023-08-06T00:37:23;56.9;;;51.6;;
72123;SDS011;63818;37.134;-8.548;2023-08-06T00:42:11;55.5;;;50.3;;
72123;SDS011;63818;37.134;-8.548;2023-08-06T00:46:57;55.0;;;49.6;;
72123;SDS011;63818;37.134;-8.548;2023-08-06T00:51:43;54.5;;;49.5;;
72123;SDS011;63818;37.134;-8.548;2023-08-06T00:56:29;55.0;;;49.8;;
72123;SDS011;63818;37.134;-8.548;2023-08-06T01:01:15;56.7;;;51.0;;
72123;SDS011;63818;37.134;-8.548;2023-08-06T01:06:02;59.3;;;53.4;;
72123;SDS011;63818;37.134;-8.548;2023-08-06T01:10:50;59.5;;;54.0;;
72123;SDS011;63818;37.134;-8.548;2023-08-06T01:15:43;59.6;;;54.0;;
72123;SDS011;63818;37.134;-8.548;2023-08-06T01:20:32;59.0;;;53.1;;
72123;SDS011;63818;37.134;-8.548;2023-08-06T01:25:17;57.9;;;52.4;;
72123;SDS011;63818;37.134;-8.548;2023-08-06T01:30:06;56.9;;;51.4;;
72123;SDS011;63818;37.134;-8.548;2023-08-06T01:34:57;54.7;;;49.6;;
72123;SDS011;63818;37.134;-8.548;2023-08-06T01:39:46;52.8;;;47.9;;
72123;SDS011;63818;37.134;-8.548;2023-08-06T01:44:32;50.1;;;45.5;;
72123;SDS011;63818;37.134;-8.548;2023-08-06T01:49:18;50.3;;;42.7;;
72123;SDS011;63818;37.134;-8.548;2023-08-06T01:54:04;46.9;;;39.7;;
72123;SDS011;63818;37.134;-8.548;2023-08-06T01:58:49;40.6;;;36.9;;
72123;SDS011;63818;37.134;-8.548;2023-08-06T02:03:36;40.5;;;34.4;;
72123;SDS011;63818;37.134;-8.548;2023-08-06T02:08:22;38.5;;;31.9;;
72123;SDS011;63818;37.134;-8.548;2023-08-06T02:13:08;35.3;;;29.6;;
72123;SDS011;63818;37.134;-8.548;2023-08-06T02:17:54;33.2;;;28.2;;
72123;SDS011;63818;37.134;-8.548;2023-08-06T02:22:40;31.4;;;27.7;;
72123;SDS011;63818;37.134;-8.548;2023-08-06T02:27:27;33.7;;;28.4;;
72123;SDS011;63818;37.134;-8.548;2023-08-06T02:32:12;33.0;;;27.6;;
72123;SDS011;63818;37.134;-8.548;2023-08-06T02:36:59;29.3;;;26.1;;
72123;SDS011;63818;37.134;-8.548;2023-08-06T02:41:45;29.0;;;24.8;;
72123;SDS011;63818;37.134;-8.548;2023-08-06T02:46:33;27.5;;;23.0;;
72123;SDS011;63818;37.134;-8.548;2023-08-06T02:51:19;25.7;;;21.9;;
72123;SDS011;63818;37.134;-8.548;2023-08-06T02:56:05;27.4;;;20.9;;
72123;SDS011;63818;37.134;-8.548;2023-08-06T03:01:03;27.2;;;19.9;;
72123;SDS011;63818;37.134;-8.548;2023-08-06T03:05:53;24.8;;;19.1;;
72123;SDS011;63818;37.134;-8.548;2023-08-06T03:10:39;22.7;;;19.1;;
72123;SDS011;63818;37.134;-8.548;2023-08-06T03:15:25;24.3;;;19.4;;
72123;SDS011;63818;37.134;-8.548;2023-08-06T03:20:13;25.0;;;19.0;;
72123;SDS011;63818;37.134;-8.548;2023-08-06T03:24:59;24.5;;;18.8;;
72123;SDS011;63818;37.134;-8.548;2023-08-06T03:29:48;26.3;;;18.2;;
72123;SDS011;63818;37.134;-8.548;2023-08-06T03:34:34;24.7;;;17.6;;
72123;SDS011;63818;37.134;-8.548;2023-08-06T03:39:20;23.0;;;17.8;;
72123;SDS011;63818;37.134;-8.548;2023-08-06T03:44:06;24.0;;;17.6;;
72123;SDS011;63818;37.134;-8.548;2023-08-06T03:48:52;23.8;;;16.9;;
72123;SDS011;63818;37.134;-8.548;2023-08-06T03:53:38;20.9;;;16.6;;
72123;SDS011;63818;37.134;-8.548;2023-08-06T03:58:24;23.2;;;17.3;;
72123;SDS011;63818;37.134;-8.548;2023-08-06T04:03:10;25.5;;;18.2;;
72123;SDS011;63818;37.134;-8.548;2023-08-06T04:07:56;21.7;;;18.1;;
72123;SDS011;63818;37.134;-8.548;2023-08-06T04:12:45;22.7;;;18.4;;
72123;SDS011;63818;37.134;-8.548;2023-08-06T04:17:31;27.2;;;18.4;;
72123;SDS011;63818;37.134;-8.548;2023-08-06T04:22:19;25.3;;;17.4;;
72123;SDS011;63818;37.134;-8.548;2023-08-06T04:27:06;24.0;;;17.7;;
72123;SDS011;63818;37.134;-8.548;2023-08-06T04:31:54;24.8;;;18.0;;
72123;SDS011;63818;37.134;-8.548;2023-08-06T04:36:40;28.6;;;18.0;;
72123;SDS011;63818;37.134;-8.548;2023-08-06T04:41:26;33.2;;;19.0;;
72123;SDS011;63818;37.134;-8.548;2023-08-06T04:46:11;31.0;;;19.4;;
72123;SDS011;63818;37.134;-8.548;2023-08-06T04:50:57;26.3;;;19.3;;
72123;SDS011;63818;37.134;-8.548;2023-08-06T04:55:44;24.1;;;18.7;;
72123;SDS011;63818;37.134;-8.548;2023-08-06T05:00:30;22.7;;;18.0;;
72123;SDS011;63818;37.134;-8.548;2023-08-06T05:05:16;25.1;;;18.9;;
72123;SDS011;63818;37.134;-8.548;2023-08-06T05:10:02;28.4;;;19.2;;
72123;SDS011;63818;37.134;-8.548;2023-08-06T05:14:48;26.3;;;18.9;;
72123;SDS011;63818;37.134;-8.548;2023-08-06T05:19:34;25.2;;;19.1;;
72123;SDS011;63818;37.134;-8.548;2023-08-06T05:24:20;24.6;;;19.1;;
72123;SDS011;63818;37.134;-8.548;2023-08-06T05:29:06;23.9;;;19.0;;
72123;SDS011;63818;37.134;-8.548;2023-08-06T05:33:54;25.8;;;19.3;;
72123;SDS011;63818;37.134;-8.548;2023-08-06T05:38:40;28.1;;;19.3;;
72123;SDS011;63818;37.134;-8.548;2023-08-06T05:43:26;26.5;;;19.0;;
72123;SDS011;63818;37.134;-8.548;2023-08-06T05:48:12;24.9;;;19.5;;
72123;SDS011;63818;37.134;-8.548;2023-08-06T05:52:58;25.8;;;19.9;;
72123;SDS011;63818;37.134;-8.548;2023-08-06T05:57:45;27.2;;;19.8;;
72123;SDS011;63818;37.134;-8.548;2023-08-06T06:02:33;26.3;;;19.4;;
72123;SDS011;63818;37.134;-8.548;2023-08-06T06:07:19;28.1;;;19.2;;
72123;SDS011;63818;37.134;-8.548;2023-08-06T06:12:06;30.1;;;19.5;;
72123;SDS011;63818;37.134;-8.548;2023-08-06T06:16:52;27.2;;;19.3;;
72123;SDS011;63818;37.134;-8.548;2023-08-06T06:21:38;27.0;;;19.1;;
72123;SDS011;63818;37.134;-8.548;2023-08-06T06:26:24;26.2;;;18.9;;
72123;SDS011;63818;37.134;-8.548;2023-08-06T06:31:10;22.6;;;18.4;;
72123;SDS011;63818;37.134;-8.548;2023-08-06T06:35:56;23.1;;;17.8;;
72123;SDS011;63818;37.134;-8.548;2023-08-06T06:40:42;26.9;;;17.9;;
72123;SDS011;63818;37.134;-8.548;2023-08-06T06:45:28;27.2;;;18.1;;
72123;SDS011;63818;37.134;-8.548;2023-08-06T06:50:14;23.8;;;17.5;;
72123;SDS011;63818;37.134;-8.548;2023-08-06T06:55:00;21.9;;;17.1;;
72123;SDS011;63818;37.134;-8.548;2023-08-06T06:59:46;24.2;;;18.0;;
72123;SDS011;63818;37.134;-8.548;2023-08-06T07:04:32;25.4;;;18.9;;
72123;SDS011;63818;37.134;-8.548;2023-08-06T07:09:20;26.3;;;18.4;;
72123;SDS011;63818;37.134;-8.548;2023-08-06T07:14:07;28.6;;;17.9;;
72123;SDS011;63818;37.134;-8.548;2023-08-06T07:18:53;26.3;;;17.1;;
72123;SDS011;63818;37.134;-8.548;2023-08-06T07:23:40;32.0;;;17.2;;
72123;SDS011;63818;37.134;-8.548;2023-08-06T07:28:28;31.8;;;17.3;;
72123;SDS011;63818;37.134;-8.548;2023-08-06T07:33:16;21.8;;;16.6;;
72123;SDS011;63818;37.134;-8.548;2023-08-06T07:38:02;21.2;;;15.9;;
72123;SDS011;63818;37.134;-8.548;2023-08-06T07:42:48;21.2;;;15.6;;
72123;SDS011;63818;37.134;-8.548;2023-08-06T07:47:35;23.8;;;15.9;;
72123;SDS011;63818;37.134;-8.548;2023-08-06T07:52:23;26.3;;;16.1;;
72123;SDS011;63818;37.134;-8.548;2023-08-06T07:57:09;24.0;;;16.1;;
72123;SDS011;63818;37.134;-8.548;2023-08-06T08:01:57;26.1;;;16.4;;
72123;SDS011;63818;37.134;-8.548;2023-08-06T08:06:43;25.4;;;16.9;;
72123;SDS011;63818;37.134;-8.548;2023-08-06T08:11:29;21.2;;;16.8;;
72123;SDS011;63818;37.134;-8.548;2023-08-06T08:16:17;27.5;;;17.1;;
72123;SDS011;63818;37.134;-8.548;2023-08-06T08:21:03;26.8;;;16.4;;
72123;SDS011;63818;37.134;-8.548;2023-08-06T08:25:49;22.9;;;15.0;;
72123;SDS011;63818;37.134;-8.548;2023-08-06T08:30:35;22.8;;;15.3;;
72123;SDS011;63818;37.134;-8.548;2023-08-06T08:35:21;19.1;;;14.9;;
72123;SDS011;63818;37.134;-8.548;2023-08-06T08:40:08;18.4;;;14.0;;
72123;SDS011;63818;37.134;-8.548;2023-08-06T08:44:54;19.4;;;12.9;;
72123;SDS011;63818;37.134;-8.548;2023-08-06T08:49:41;18.8;;;11.8;;
72123;SDS011;63818;37.134;-8.548;2023-08-06T08:54:28;17.2;;;11.0;;
72123;SDS011;63818;37.134;-8.548;2023-08-06T08:59:17;17.7;;;10.3;;
72123;SDS011;63818;37.134;-8.548;2023-08-06T09:04:04;18.9;;;10.1;;
72123;SDS011;63818;37.134;-8.548;2023-08-06T09:08:54;20.4;;;10.0;;
72123;SDS011;63818;37.134;-8.548;2023-08-06T09:13:47;21.2;;;10.0;;
72123;SDS011;63818;37.134;-8.548;2023-08-06T09:18:33;16.8;;;9.8;;
72123;SDS011;63818;37.134;-8.548;2023-08-06T09:23:19;14.7;;;9.9;;
72123;SDS011;63818;37.134;-8.548;2023-08-06T09:28:05;20.8;;;10.4;;
72123;SDS011;63818;37.134;-8.548;2023-08-06T09:32:51;25.8;;;10.4;;
72123;SDS011;63818;37.134;-8.548;2023-08-06T09:37:37;22.9;;;9.8;;
72123;SDS011;63818;37.134;-8.548;2023-08-06T09:42:23;17.5;;;9.4;;
72123;SDS011;63818;37.134;-8.548;2023-08-06T09:47:09;18.0;;;11.1;;
72123;SDS011;63818;37.134;-8.548;2023-08-06T09:51:55;18.8;;;12.4;;
72123;SDS011;63818;37.134;-8.548;2023-08-06T09:56:41;18.8;;;12.1;;
72123;SDS011;63818;37.134;-8.548;2023-08-06T10:01:28;21.0;;;11.5;;
72123;SDS011;63818;37.134;-8.548;2023-08-06T10:06:17;18.3;;;10.5;;
72123;SDS011;63818;37.134;-8.548;2023-08-06T10:11:04;16.7;;;10.4;;
72123;SDS011;63818;37.134;-8.548;2023-08-06T10:15:51;18.6;;;10.2;;
72123;SDS011;63818;37.134;-8.548;2023-08-06T10:20:38;19.4;;;10.4;;
72123;SDS011;63818;37.134;-8.548;2023-08-06T10:25:24;32.9;;;10.5;;
72123;SDS011;63818;37.134;-8.548;2023-08-06T10:30:23;20.3;;;9.6;;
72123;SDS011;63818;37.134;-8.548;2023-08-06T10:35:10;12.6;;;8.1;;
72123;SDS011;63818;37.134;-8.548;2023-08-06T10:40:26;15.8;;;7.4;;
72123;SDS011;63818;37.134;-8.548;2023-08-06T10:45:13;18.2;;;7.7;;
72123;SDS011;63818;37.134;-8.548;2023-08-06T10:49:59;14.7;;;7.5;;
72123;SDS011;63818;37.134;-8.548;2023-08-06T10:54:45;14.6;;;8.0;;
72123;SDS011;63818;37.134;-8.548;2023-08-06T10:59:31;15.1;;;8.1;;
72123;SDS011;63818;37.134;-8.548;2023-08-06T11:04:18;14.3;;;7.9;;
72123;SDS011;63818;37.134;-8.548;2023-08-06T11:09:07;15.2;;;8.0;;
72123;SDS011;63818;37.134;-8.548;2023-08-06T11:13:53;16.4;;;8.0;;
72123;SDS011;63818;37.134;-8.548;2023-08-06T11:18:39;15.7;;;7.9;;
72123;SDS011;63818;37.134;-8.548;2023-08-06T11:23:27;13.4;;;7.5;;
72123;SDS011;63818;37.134;-8.548;2023-08-06T11:28:13;15.8;;;7.3;;
72123;SDS011;63818;37.134;-8.548;2023-08-06T11:32:59;19.5;;;7.2;;
72123;SDS011;63818;37.134;-8.548;2023-08-06T11:37:46;17.3;;;6.8;;
72123;SDS011;63818;37.134;-8.548;2023-08-06T11:42:32;14.7;;;7.3;;
72123;SDS011;63818;37.134;-8.548;2023-08-06T11:47:18;13.1;;;8.0;;
72123;SDS011;63818;37.134;-8.548;2023-08-06T11:52:08;15.7;;;7.7;;
72123;SDS011;63818;37.134;-8.548;2023-08-06T11:56:55;16.5;;;7.3;;
72123;SDS011;63818;37.134;-8.548;2023-08-06T12:01:41;14.6;;;7.5;;
72123;SDS011;63818;37.134;-8.548;2023-08-06T12:06:28;13.8;;;7.9;;
72123;SDS011;63818;37.134;-8.548;2023-08-06T12:11:14;11.4;;;7.8;;
72123;SDS011;63818;37.134;-8.548;2023-08-06T12:16:00;14.1;;;7.9;;
72123;SDS011;63818;37.134;-8.548;2023-08-06T12:20:46;19.5;;;8.1;;
72123;SDS011;63818;37.134;-8.548;2023-08-06T12:25:32;18.9;;;7.6;;
72123;SDS011;63818;37.134;-8.548;2023-08-06T12:30:18;14.7;;;7.6;;
72123;SDS011;63818;37.134;-8.548;2023-08-06T12:35:05;14.5;;;8.2;;
72123;SDS011;63818;37.134;-8.548;2023-08-06T12:39:52;15.6;;;8.5;;
72123;SDS011;63818;37.134;-8.548;2023-08-06T12:44:38;16.2;;;8.2;;
72123;SDS011;63818;37.134;-8.548;2023-08-06T12:49:24;16.4;;;8.2;;
72123;SDS011;63818;37.134;-8.548;2023-08-06T12:54:11;20.7;;;8.5;;
72123;SDS011;63818;37.134;-8.548;2023-08-06T12:58:57;14.1;;;8.4;;
72123;SDS011;63818;37.134;-8.548;2023-08-06T13:03:43;13.8;;;8.1;;
72123;SDS011;63818;37.134;-8.548;2023-08-06T13:08:29;14.7;;;8.5;;
72123;SDS011;63818;37.134;-8.548;2023-08-06T13:13:15;15.0;;;8.5;;
72123;SDS011;63818;37.134;-8.548;2023-08-06T13:18:01;15.1;;;8.6;;
72123;SDS011;63818;37.134;-8.548;2023-08-06T13:22:47;15.1;;;8.8;;
72123;SDS011;63818;37.134;-8.548;2023-08-06T13:27:34;15.5;;;9.0;;
72123;SDS011;63818;37.134;-8.548;2023-08-06T13:32:20;15.7;;;9.2;;
72123;SDS011;63818;37.134;-8.548;2023-08-06T13:37:05;15.8;;;9.2;;
72123;SDS011;63818;37.134;-8.548;2023-08-06T13:41:52;16.3;;;8.4;;
72123;SDS011;63818;37.134;-8.548;2023-08-06T13:46:38;17.9;;;8.2;;
72123;SDS011;63818;37.134;-8.548;2023-08-06T13:51:24;16.4;;;8.2;;
72123;SDS011;63818;37.134;-8.548;2023-08-06T13:56:10;12.4;;;7.6;;
72123;SDS011;63818;37.134;-8.548;2023-08-06T14:00:56;15.1;;;7.2;;
72123;SDS011;63818;37.134;-8.548;2023-08-06T14:05:42;17.1;;;7.5;;
72123;SDS011;63818;37.134;-8.548;2023-08-06T14:10:31;15.9;;;7.7;;
72123;SDS011;63818;37.134;-8.548;2023-08-06T14:15:17;14.5;;;7.4;;
72123;SDS011;63818;37.134;-8.548;2023-08-06T14:20:03;13.8;;;7.2;;
72123;SDS011;63818;37.134;-8.548;2023-08-06T14:24:50;17.0;;;6.9;;
72123;SDS011;63818;37.134;-8.548;2023-08-06T14:29:36;15.8;;;6.9;;
72123;SDS011;63818;37.134;-8.548;2023-08-06T14:34:22;12.0;;;7.0;;
72123;SDS011;63818;37.134;-8.548;2023-08-06T14:39:08;13.4;;;6.4;;
72123;SDS011;63818;37.134;-8.548;2023-08-06T14:43:54;13.5;;;6.1;;
72123;SDS011;63818;37.134;-8.548;2023-08-06T14:48:41;13.5;;;6.2;;
72123;SDS011;63818;37.134;-8.548;2023-08-06T14:53:27;13.4;;;6.2;;
72123;SDS011;63818;37.134;-8.548;2023-08-06T14:58:13;14.8;;;6.5;;
72123;SDS011;63818;37.134;-8.548;2023-08-06T15:02:59;15.0;;;6.3;;
72123;SDS011;63818;37.134;-8.548;2023-08-06T15:07:45;12.4;;;6.0;;
72123;SDS011;63818;37.134;-8.548;2023-08-06T15:12:31;13.8;;;6.3;;
72123;SDS011;63818;37.134;-8.548;2023-08-06T15:17:17;13.4;;;6.0;;
72123;SDS011;63818;37.134;-8.548;2023-08-06T15:22:03;10.2;;;5.6;;
72123;SDS011;63818;37.134;-8.548;2023-08-06T15:26:49;11.9;;;5.7;;
72123;SDS011;63818;37.134;-8.548;2023-08-06T15:31:37;14.7;;;5.8;;
72123;SDS011;63818;37.134;-8.548;2023-08-06T15:36:25;16.3;;;5.9;;
72123;SDS011;63818;37.134;-8.548;2023-08-06T15:41:11;14.5;;;5.8;;
72123;SDS011;63818;37.134;-8.548;2023-08-06T15:45:57;11.0;;;6.0;;
72123;SDS011;63818;37.134;-8.548;2023-08-06T15:50:43;12.7;;;6.1;;
72123;SDS011;63818;37.134;-8.548;2023-08-06T15:55:31;11.7;;;5.8;;
72123;SDS011;63818;37.134;-8.548;2023-08-06T16:00:17;10.1;;;5.7;;
72123;SDS011;63818;37.134;-8.548;2023-08-06T16:05:04;10.5;;;5.6;;
72123;SDS011;63818;37.134;-8.548;2023-08-06T16:09:50;11.9;;;5.8;;
72123;SDS011;63818;37.134;-8.548;2023-08-06T16:14:38;12.5;;;5.7;;
72123;SDS011;63818;37.134;-8.548;2023-08-06T16:19:24;12.0;;;5.6;;
72123;SDS011;63818;37.134;-8.548;2023-08-06T16:24:10;15.4;;;5.9;;
72123;SDS011;63818;37.134;-8.548;2023-08-06T16:28:56;14.1;;;5.8;;
72123;SDS011;63818;37.134;-8.548;2023-08-06T16:33:42;15.3;;;5.6;;
72123;SDS011;63818;37.134;-8.548;2023-08-06T16:38:29;16.0;;;6.1;;
72123;SDS011;63818;37.134;-8.548;2023-08-06T16:43:15;11.7;;;6.2;;
72123;SDS011;63818;37.134;-8.548;2023-08-06T16:48:01;13.3;;;5.9;;
72123;SDS011;63818;37.134;-8.548;2023-08-06T16:52:48;13.2;;;6.1;;
72123;SDS011;63818;37.134;-8.548;2023-08-06T16:57:36;12.3;;;5.9;;
72123;SDS011;63818;37.134;-8.548;2023-08-06T17:02:22;11.8;;;5.6;;
72123;SDS011;63818;37.134;-8.548;2023-08-06T17:07:10;10.4;;;5.9;;
72123;SDS011;63818;37.134;-8.548;2023-08-06T17:11:55;11.0;;;5.9;;
72123;SDS011;63818;37.134;-8.548;2023-08-06T17:16:45;10.4;;;5.7;;
72123;SDS011;63818;37.134;-8.548;2023-08-06T17:21:31;10.2;;;6.1;;
72123;SDS011;63818;37.134;-8.548;2023-08-06T17:26:17;14.6;;;8.1;;
72123;SDS011;63818;37.134;-8.548;2023-08-06T17:31:03;14.2;;;7.8;;
72123;SDS011;63818;37.134;-8.548;2023-08-06T17:35:50;13.4;;;6.6;;
72123;SDS011;63818;37.134;-8.548;2023-08-06T17:40:35;13.1;;;6.6;;
72123;SDS011;63818;37.134;-8.548;2023-08-06T17:45:22;12.8;;;6.0;;
72123;SDS011;63818;37.134;-8.548;2023-08-06T17:50:08;12.7;;;5.9;;
72123;SDS011;63818;37.134;-8.548;2023-08-06T17:54:55;13.4;;;6.0;;
72123;SDS011;63818;37.134;-8.548;2023-08-06T17:59:45;16.8;;;6.1;;
72123;SDS011;63818;37.134;-8.548;2023-08-06T18:04:38;16.5;;;5.9;;
72123;SDS011;63818;37.134;-8.548;2023-08-06T18:09:24;13.1;;;5.9;;
72123;SDS011;63818;37.134;-8.548;2023-08-06T18:14:10;10.4;;;6.1;;
72123;SDS011;63818;37.134;-8.548;2023-08-06T18:18:55;13.7;;;6.1;;
72123;SDS011;63818;37.134;-8.548;2023-08-06T18:24:13;14.0;;;6.0;;
72123;SDS011;63818;37.134;-8.548;2023-08-06T18:29:00;13.6;;;5.9;;
72123;SDS011;63818;37.134;-8.548;2023-08-06T18:33:46;12.0;;;6.0;;
72123;SDS011;63818;37.134;-8.548;2023-08-06T18:38:34;11.2;;;5.9;;
72123;SDS011;63818;37.134;-8.548;2023-08-06T18:43:22;11.3;;;6.0;;
72123;SDS011;63818;37.134;-8.548;2023-08-06T18:48:09;12.4;;;6.3;;
72123;SDS011;63818;37.134;-8.548;2023-08-06T18:52:55;13.2;;;6.4;;
72123;SDS011;63818;37.134;-8.548;2023-08-06T18:57:41;13.2;;;7.3;;
72123;SDS011;63818;37.134;-8.548;2023-08-06T19:02:27;13.5;;;7.4;;
72123;SDS011;63818;37.134;-8.548;2023-08-06T19:07:13;16.5;;;7.7;;
72123;SDS011;63818;37.134;-8.548;2023-08-06T19:11:59;17.1;;;8.6;;
72123;SDS011;63818;37.134;-8.548;2023-08-06T19:16:45;15.0;;;8.5;;
72123;SDS011;63818;37.134;-8.548;2023-08-06T19:21:31;14.4;;;8.2;;
72123;SDS011;63818;37.134;-8.548;2023-08-06T19:26:19;13.2;;;8.2;;
72123;SDS011;63818;37.134;-8.548;2023-08-06T19:31:05;12.2;;;7.9;;
72123;SDS011;63818;37.134;-8.548;2023-08-06T19:35:53;16.3;;;7.9;;
72123;SDS011;63818;37.134;-8.548;2023-08-06T19:40:40;19.1;;;8.1;;
72123;SDS011;63818;37.134;-8.548;2023-08-06T19:45:26;15.7;;;8.0;;
72123;SDS011;63818;37.134;-8.548;2023-08-06T19:50:11;13.8;;;8.1;;
72123;SDS011;63818;37.134;-8.548;2023-08-06T19:54:58;17.7;;;8.2;;
72123;SDS011;63818;37.134;-8.548;2023-08-06T19:59:44;18.8;;;8.1;;
72123;SDS011;63818;37.134;-8.548;2023-08-06T20:04:30;12.8;;;7.6;;
72123;SDS011;63818;37.134;-8.548;2023-08-06T20:09:15;14.1;;;7.4;;
72123;SDS011;63818;37.134;-8.548;2023-08-06T20:14:01;14.9;;;7.3;;
72123;SDS011;63818;37.134;-8.548;2023-08-06T20:18:48;13.8;;;7.1;;
72123;SDS011;63818;37.134;-8.548;2023-08-06T20:23:34;13.6;;;7.1;;
72123;SDS011;63818;37.134;-8.548;2023-08-06T20:28:21;14.3;;;7.3;;
72123;SDS011;63818;37.134;-8.548;2023-08-06T20:33:07;14.7;;;7.2;;
72123;SDS011;63818;37.134;-8.548;2023-08-06T20:37:53;15.5;;;6.9;;
72123;SDS011;63818;37.134;-8.548;2023-08-06T20:42:39;17.9;;;6.9;;
72123;SDS011;63818;37.134;-8.548;2023-08-06T20:47:25;14.7;;;7.0;;
72123;SDS011;63818;37.134;-8.548;2023-08-06T20:52:11;12.8;;;6.8;;
72123;SDS011;63818;37.134;-8.548;2023-08-06T20:56:57;16.1;;;6.9;;
72123;SDS011;63818;37.134;-8.548;2023-08-06T21:01:43;15.3;;;7.0;;
72123;SDS011;63818;37.134;-8.548;2023-08-06T21:06:29;11.9;;;6.7;;
72123;SDS011;63818;37.134;-8.548;2023-08-06T21:11:17;12.9;;;7.1;;
72123;SDS011;63818;37.134;-8.548;2023-08-06T21:16:04;15.5;;;7.0;;
72123;SDS011;63818;37.134;-8.548;2023-08-06T21:20:52;13.9;;;6.6;;
72123;SDS011;63818;37.134;-8.548;2023-08-06T21:25:39;12.8;;;7.1;;
72123;SDS011;63818;37.134;-8.548;2023-08-06T21:30:29;15.4;;;7.1;;
72123;SDS011;63818;37.134;-8.548;2023-08-06T21:35:15;17.3;;;6.9;;
72123;SDS011;63818;37.134;-8.548;2023-08-06T21:40:01;15.5;;;7.0;;
72123;SDS011;63818;37.134;-8.548;2023-08-06T21:44:47;11.6;;;6.9;;
72123;SDS011;63818;37.134;-8.548;2023-08-06T21:49:33;12.6;;;6.9;;
72123;SDS011;63818;37.134;-8.548;2023-08-06T21:54:19;18.4;;;8.9;;
72123;SDS011;63818;37.134;-8.548;2023-08-06T21:59:05;22.1;;;11.0;;
72123;SDS011;63818;37.134;-8.548;2023-08-06T22:03:51;19.5;;;12.2;;
72123;SDS011;63818;37.134;-8.548;2023-08-06T22:08:37;20.9;;;12.4;;
72123;SDS011;63818;37.134;-8.548;2023-08-06T22:13:24;23.0;;;12.3;;
72123;SDS011;63818;37.134;-8.548;2023-08-06T22:18:13;20.9;;;12.4;;
72123;SDS011;63818;37.134;-8.548;2023-08-06T22:23:01;19.6;;;11.5;;
72123;SDS011;63818;37.134;-8.548;2023-08-06T22:27:47;23.7;;;11.5;;
72123;SDS011;63818;37.134;-8.548;2023-08-06T22:32:34;25.3;;;12.4;;
72123;SDS011;63818;37.134;-8.548;2023-08-06T22:37:20;22.7;;;12.3;;
72123;SDS011;63818;37.134;-8.548;2023-08-06T22:42:06;23.1;;;12.4;;
72123;SDS011;63818;37.134;-8.548;2023-08-06T22:46:52;26.4;;;12.1;;
72123;SDS011;63818;37.134;-8.548;2023-08-06T22:51:39;24.4;;;11.2;;
72123;SDS011;63818;37.134;-8.548;2023-08-06T22:56:25;20.7;;;10.4;;
72123;SDS011;63818;37.134;-8.548;2023-08-06T23:01:11;19.6;;;9.3;;
72123;SDS011;63818;37.134;-8.548;2023-08-06T23:05:57;21.2;;;9.2;;
72123;SDS011;63818;37.134;-8.548;2023-08-06T23:10:43;25.1;;;10.3;;
72123;SDS011;63818;37.134;-8.548;2023-08-06T23:15:28;24.2;;;10.5;;
72123;SDS011;63818;37.134;-8.548;2023-08-06T23:20:15;24.9;;;10.7;;
72123;SDS011;63818;37.134;-8.548;2023-08-06T23:25:01;28.9;;;11.0;;
72123;SDS011;63818;37.134;-8.548;2023-08-06T23:29:46;27.2;;;11.0;;
72123;SDS011;63818;37.134;-8.548;2023-08-06T23:34:32;22.9;;;11.1;;
72123;SDS011;63818;37.134;-8.548;2023-08-06T23:39:18;23.4;;;10.7;;
72123;SDS011;63818;37.134;-8.548;2023-08-06T23:44:04;28.7;;;10.4;;
72123;SDS011;63818;37.134;-8.548;2023-08-06T23:48:50;30.2;;;10.6;;
72123;SDS011;63818;37.134;-8.548;2023-08-06T23:53:39;25.6;;;10.1;;
72123;SDS011;63818;37.134;-8.548;2023-08-06T23:58:25;26.1;;;9.9;;
